sensor_id;sensor_type;location;lat;lon;timestamp;P1;durP1;ratioP1;P2;durP2;ratioP2
18695;SDS011;22617;43.690;27.956;2024-02-23T00:02:47;37.20;;;16.67;;
18695;SDS011;22617;43.690;27.956;2024-02-23T00:07:51;39.23;;;17.00;;
18695;SDS011;22617;43.690;27.956;2024-02-23T00:12:54;38.83;;;17.00;;
18695;SDS011;22617;43.690;27.956;2024-02-23T00:17:59;35.23;;;16.60;;
18695;SDS011;22617;43.690;27.956;2024-02-23T00:23:05;39.30;;;17.13;;
18695;SDS011;22617;43.690;27.956;2024-02-23T00:28:08;36.33;;;17.23;;
18695;SDS011;22617;43.690;27.956;2024-02-23T00:33:13;42.93;;;17.80;;
18695;SDS011;22617;43.690;27.956;2024-02-23T00:38:17;39.43;;;17.17;;
18695;SDS011;22617;43.690;27.956;2024-02-23T00:43:20;35.93;;;17.17;;
18695;SDS011;22617;43.690;27.956;2024-02-23T00:48:25;35.93;;;16.53;;
18695;SDS011;22617;43.690;27.956;2024-02-23T00:53:30;35.80;;;16.17;;
18695;SDS011;22617;43.690;27.956;2024-02-23T00:58:34;32.97;;;16.60;;
18695;SDS011;22617;43.690;27.956;2024-02-23T01:03:39;34.27;;;16.00;;
18695;SDS011;22617;43.690;27.956;2024-02-23T01:08:42;38.53;;;16.70;;
18695;SDS011;22617;43.690;27.956;2024-02-23T01:13:46;33.73;;;15.93;;
18695;SDS011;22617;43.690;27.956;2024-02-23T01:18:51;41.97;;;17.63;;
18695;SDS011;22617;43.690;27.956;2024-02-23T01:23:54;35.30;;;16.37;;
18695;SDS011;22617;43.690;27.956;2024-02-23T01:28:59;37.60;;;16.87;;
18695;SDS011;22617;43.690;27.956;2024-02-23T01:34:03;36.17;;;16.93;;
18695;SDS011;22617;43.690;27.956;2024-02-23T01:39:07;36.57;;;17.40;;
18695;SDS011;22617;43.690;27.956;2024-02-23T01:44:11;34.67;;;16.67;;
18695;SDS011;22617;43.690;27.956;2024-02-23T01:49:16;40.10;;;17.80;;
18695;SDS011;22617;43.690;27.956;2024-02-23T01:54:21;40.13;;;17.27;;
18695;SDS011;22617;43.690;27.956;2024-02-23T01:59:24;38.30;;;17.17;;
18695;SDS011;22617;43.690;27.956;2024-02-23T02:04:30;39.23;;;17.67;;
18695;SDS011;22617;43.690;27.956;2024-02-23T02:09:34;38.37;;;17.30;;
18695;SDS011;22617;43.690;27.956;2024-02-23T02:14:38;39.70;;;18.30;;
18695;SDS011;22617;43.690;27.956;2024-02-23T02:19:46;41.77;;;19.57;;
18695;SDS011;22617;43.690;27.956;2024-02-23T02:24:50;42.40;;;18.70;;
18695;SDS011;22617;43.690;27.956;2024-02-23T02:29:54;41.37;;;18.77;;
18695;SDS011;22617;43.690;27.956;2024-02-23T02:34:59;43.17;;;19.23;;
18695;SDS011;22617;43.690;27.956;2024-02-23T02:40:03;43.90;;;18.30;;
18695;SDS011;22617;43.690;27.956;2024-02-23T02:45:08;42.43;;;18.67;;
18695;SDS011;22617;43.690;27.956;2024-02-23T02:50:12;43.87;;;20.00;;
18695;SDS011;22617;43.690;27.956;2024-02-23T02:55:16;38.30;;;17.47;;
18695;SDS011;22617;43.690;27.956;2024-02-23T03:00:20;40.87;;;18.63;;
18695;SDS011;22617;43.690;27.956;2024-02-23T03:05:24;46.33;;;19.60;;
18695;SDS011;22617;43.690;27.956;2024-02-23T03:10:28;39.37;;;17.87;;
18695;SDS011;22617;43.690;27.956;2024-02-23T03:15:31;42.97;;;20.13;;
18695;SDS011;22617;43.690;27.956;2024-02-23T03:20:36;41.53;;;18.83;;
18695;SDS011;22617;43.690;27.956;2024-02-23T03:25:40;41.47;;;18.77;;
18695;SDS011;22617;43.690;27.956;2024-02-23T03:30:43;40.77;;;18.87;;
18695;SDS011;22617;43.690;27.956;2024-02-23T03:35:48;38.63;;;17.93;;
18695;SDS011;22617;43.690;27.956;2024-02-23T03:40:51;42.03;;;18.63;;
18695;SDS011;22617;43.690;27.956;2024-02-23T03:45:55;42.23;;;19.27;;
18695;SDS011;22617;43.690;27.956;2024-02-23T03:51:00;42.67;;;18.90;;
18695;SDS011;22617;43.690;27.956;2024-02-23T03:56:04;38.07;;;18.33;;
18695;SDS011;22617;43.690;27.956;2024-02-23T04:01:07;38.67;;;19.03;;
18695;SDS011;22617;43.690;27.956;2024-02-23T04:06:12;41.93;;;19.13;;
18695;SDS011;22617;43.690;27.956;2024-02-23T04:11:16;48.03;;;21.33;;
18695;SDS011;22617;43.690;27.956;2024-02-23T04:16:22;44.30;;;19.63;;
18695;SDS011;22617;43.690;27.956;2024-02-23T04:21:28;38.10;;;18.10;;
18695;SDS011;22617;43.690;27.956;2024-02-23T04:26:31;40.03;;;19.70;;
18695;SDS011;22617;43.690;27.956;2024-02-23T04:31:36;42.03;;;18.23;;
18695;SDS011;22617;43.690;27.956;2024-02-23T04:36:41;40.80;;;18.80;;
18695;SDS011;22617;43.690;27.956;2024-02-23T04:41:45;44.77;;;19.63;;
18695;SDS011;22617;43.690;27.956;2024-02-23T04:46:48;39.33;;;18.57;;
18695;SDS011;22617;43.690;27.956;2024-02-23T04:51:53;41.70;;;19.13;;
18695;SDS011;22617;43.690;27.956;2024-02-23T04:56:56;38.30;;;18.83;;
18695;SDS011;22617;43.690;27.956;2024-02-23T05:02:00;39.13;;;19.30;;
18695;SDS011;22617;43.690;27.956;2024-02-23T05:07:05;40.47;;;18.73;;
18695;SDS011;22617;43.690;27.956;2024-02-23T05:12:08;40.90;;;19.07;;
18695;SDS011;22617;43.690;27.956;2024-02-23T05:17:12;37.53;;;17.93;;
18695;SDS011;22617;43.690;27.956;2024-02-23T05:22:17;45.17;;;19.83;;
18695;SDS011;22617;43.690;27.956;2024-02-23T05:27:20;38.73;;;18.77;;
18695;SDS011;22617;43.690;27.956;2024-02-23T05:32:25;41.80;;;17.83;;
18695;SDS011;22617;43.690;27.956;2024-02-23T05:37:30;40.23;;;18.83;;
18695;SDS011;22617;43.690;27.956;2024-02-23T05:42:33;40.53;;;19.00;;
18695;SDS011;22617;43.690;27.956;2024-02-23T05:47:40;39.90;;;18.63;;
18695;SDS011;22617;43.690;27.956;2024-02-23T05:52:50;39.30;;;18.97;;
18695;SDS011;22617;43.690;27.956;2024-02-23T05:57:55;38.77;;;19.87;;
18695;SDS011;22617;43.690;27.956;2024-02-23T06:02:59;37.67;;;18.03;;
18695;SDS011;22617;43.690;27.956;2024-02-23T06:08:04;38.70;;;17.47;;
18695;SDS011;22617;43.690;27.956;2024-02-23T06:13:08;37.90;;;18.03;;
18695;SDS011;22617;43.690;27.956;2024-02-23T06:18:12;36.70;;;17.97;;
18695;SDS011;22617;43.690;27.956;2024-02-23T06:23:17;37.23;;;17.50;;
18695;SDS011;22617;43.690;27.956;2024-02-23T06:28:20;34.60;;;17.87;;
18695;SDS011;22617;43.690;27.956;2024-02-23T06:33:24;37.37;;;17.97;;
18695;SDS011;22617;43.690;27.956;2024-02-23T06:38:29;36.10;;;16.63;;
18695;SDS011;22617;43.690;27.956;2024-02-23T06:43:32;34.97;;;17.10;;
18695;SDS011;22617;43.690;27.956;2024-02-23T06:48:36;34.63;;;17.40;;
18695;SDS011;22617;43.690;27.956;2024-02-23T06:53:41;31.90;;;16.37;;
18695;SDS011;22617;43.690;27.956;2024-02-23T06:58:45;31.80;;;17.10;;
18695;SDS011;22617;43.690;27.956;2024-02-23T07:03:48;33.33;;;17.63;;
18695;SDS011;22617;43.690;27.956;2024-02-23T07:08:54;33.43;;;17.03;;
18695;SDS011;22617;43.690;27.956;2024-02-23T07:13:57;33.40;;;17.77;;
18695;SDS011;22617;43.690;27.956;2024-02-23T07:19:01;34.40;;;17.47;;
18695;SDS011;22617;43.690;27.956;2024-02-23T07:24:06;31.73;;;16.90;;
18695;SDS011;22617;43.690;27.956;2024-02-23T07:29:10;32.03;;;16.37;;
18695;SDS011;22617;43.690;27.956;2024-02-23T07:34:16;29.87;;;16.77;;
18695;SDS011;22617;43.690;27.956;2024-02-23T07:39:21;30.07;;;16.37;;
18695;SDS011;22617;43.690;27.956;2024-02-23T07:44:24;29.93;;;16.37;;
18695;SDS011;22617;43.690;27.956;2024-02-23T07:49:28;27.13;;;15.37;;
18695;SDS011;22617;43.690;27.956;2024-02-23T07:54:33;28.83;;;15.20;;
18695;SDS011;22617;43.690;27.956;2024-02-23T07:59:36;22.30;;;12.53;;
18695;SDS011;22617;43.690;27.956;2024-02-23T08:04:40;25.03;;;11.20;;
18695;SDS011;22617;43.690;27.956;2024-02-23T08:09:45;20.77;;;10.73;;
18695;SDS011;22617;43.690;27.956;2024-02-23T08:14:49;20.13;;;11.00;;
18695;SDS011;22617;43.690;27.956;2024-02-23T08:19:55;16.67;;;10.43;;
18695;SDS011;22617;43.690;27.956;2024-02-23T08:25:00;18.80;;;11.10;;
18695;SDS011;22617;43.690;27.956;2024-02-23T08:30:04;18.47;;;10.00;;
18695;SDS011;22617;43.690;27.956;2024-02-23T08:35:09;14.07;;;8.57;;
18695;SDS011;22617;43.690;27.956;2024-02-23T08:40:14;14.60;;;9.40;;
18695;SDS011;22617;43.690;27.956;2024-02-23T08:45:19;17.33;;;9.50;;
18695;SDS011;22617;43.690;27.956;2024-02-23T08:50:22;16.40;;;9.73;;
18695;SDS011;22617;43.690;27.956;2024-02-23T08:55:27;16.07;;;10.20;;
18695;SDS011;22617;43.690;27.956;2024-02-23T09:00:32;26.97;;;9.73;;
18695;SDS011;22617;43.690;27.956;2024-02-23T09:05:35;16.03;;;9.53;;
18695;SDS011;22617;43.690;27.956;2024-02-23T09:10:40;12.43;;;8.53;;
18695;SDS011;22617;43.690;27.956;2024-02-23T09:15:44;14.53;;;9.57;;
18695;SDS011;22617;43.690;27.956;2024-02-23T09:20:48;14.53;;;8.67;;
18695;SDS011;22617;43.690;27.956;2024-02-23T09:25:53;14.97;;;8.93;;
18695;SDS011;22617;43.690;27.956;2024-02-23T09:30:56;12.60;;;8.47;;
18695;SDS011;22617;43.690;27.956;2024-02-23T09:36:00;10.60;;;8.00;;
18695;SDS011;22617;43.690;27.956;2024-02-23T09:41:07;9.70;;;6.87;;
18695;SDS011;22617;43.690;27.956;2024-02-23T09:46:18;11.63;;;7.03;;
18695;SDS011;22617;43.690;27.956;2024-02-23T09:51:22;13.63;;;7.38;;
18695;SDS011;22617;43.690;27.956;2024-02-23T09:56:27;11.03;;;6.23;;
18695;SDS011;22617;43.690;27.956;2024-02-23T10:01:32;8.80;;;6.05;;
18695;SDS011;22617;43.690;27.956;2024-02-23T10:06:36;8.23;;;5.72;;
18695;SDS011;22617;43.690;27.956;2024-02-23T10:11:41;9.75;;;5.85;;
18695;SDS011;22617;43.690;27.956;2024-02-23T10:16:44;10.18;;;6.32;;
18695;SDS011;22617;43.690;27.956;2024-02-23T10:21:48;10.95;;;6.57;;
18695;SDS011;22617;43.690;27.956;2024-02-23T10:26:53;8.75;;;6.20;;
18695;SDS011;22617;43.690;27.956;2024-02-23T10:31:57;12.85;;;6.65;;
18695;SDS011;22617;43.690;27.956;2024-02-23T10:37:01;8.98;;;5.68;;
18695;SDS011;22617;43.690;27.956;2024-02-23T10:42:09;12.00;;;6.20;;
18695;SDS011;22617;43.690;27.956;2024-02-23T10:47:14;9.90;;;6.10;;
18695;SDS011;22617;43.690;27.956;2024-02-23T10:52:17;9.15;;;6.22;;
18695;SDS011;22617;43.690;27.956;2024-02-23T10:57:23;9.77;;;6.57;;
18695;SDS011;22617;43.690;27.956;2024-02-23T11:02:27;9.68;;;6.50;;
18695;SDS011;22617;43.690;27.956;2024-02-23T11:07:37;8.43;;;6.00;;
18695;SDS011;22617;43.690;27.956;2024-02-23T11:12:43;10.57;;;6.28;;
18695;SDS011;22617;43.690;27.956;2024-02-23T11:17:49;8.73;;;5.97;;
18695;SDS011;22617;43.690;27.956;2024-02-23T11:22:53;12.35;;;6.43;;
18695;SDS011;22617;43.690;27.956;2024-02-23T11:27:58;9.70;;;5.80;;
18695;SDS011;22617;43.690;27.956;2024-02-23T11:33:02;9.90;;;5.63;;
18695;SDS011;22617;43.690;27.956;2024-02-23T11:38:06;7.53;;;5.13;;
18695;SDS011;22617;43.690;27.956;2024-02-23T11:43:12;7.03;;;5.00;;
18695;SDS011;22617;43.690;27.956;2024-02-23T11:48:17;8.32;;;5.45;;
18695;SDS011;22617;43.690;27.956;2024-02-23T11:53:24;8.82;;;5.55;;
18695;SDS011;22617;43.690;27.956;2024-02-23T11:58:30;6.90;;;5.18;;
18695;SDS011;22617;43.690;27.956;2024-02-23T12:03:35;14.90;;;5.57;;
18695;SDS011;22617;43.690;27.956;2024-02-23T12:08:41;7.88;;;4.85;;
18695;SDS011;22617;43.690;27.956;2024-02-23T12:13:46;8.95;;;4.60;;
18695;SDS011;22617;43.690;27.956;2024-02-23T12:18:53;7.82;;;5.07;;
18695;SDS011;22617;43.690;27.956;2024-02-23T12:23:58;6.93;;;5.00;;
18695;SDS011;22617;43.690;27.956;2024-02-23T12:29:03;12.55;;;7.18;;
18695;SDS011;22617;43.690;27.956;2024-02-23T12:34:06;8.05;;;5.65;;
18695;SDS011;22617;43.690;27.956;2024-02-23T12:39:14;6.82;;;5.18;;
18695;SDS011;22617;43.690;27.956;2024-02-23T12:44:19;7.47;;;5.53;;
18695;SDS011;22617;43.690;27.956;2024-02-23T12:49:22;9.45;;;5.80;;
18695;SDS011;22617;43.690;27.956;2024-02-23T12:54:26;8.27;;;5.15;;
18695;SDS011;22617;43.690;27.956;2024-02-23T12:59:30;9.52;;;6.13;;
18695;SDS011;22617;43.690;27.956;2024-02-23T13:04:34;9.27;;;6.38;;
18695;SDS011;22617;43.690;27.956;2024-02-23T13:09:37;11.70;;;6.45;;
18695;SDS011;22617;43.690;27.956;2024-02-23T13:14:42;10.05;;;6.28;;
18695;SDS011;22617;43.690;27.956;2024-02-23T13:19:46;11.30;;;5.80;;
18695;SDS011;22617;43.690;27.956;2024-02-23T13:25:06;7.93;;;4.97;;
18695;SDS011;22617;43.690;27.956;2024-02-23T13:30:12;8.40;;;5.40;;
18695;SDS011;22617;43.690;27.956;2024-02-23T13:35:16;6.40;;;4.63;;
18695;SDS011;22617;43.690;27.956;2024-02-23T13:40:19;7.95;;;4.63;;
18695;SDS011;22617;43.690;27.956;2024-02-23T13:45:24;7.25;;;5.00;;
18695;SDS011;22617;43.690;27.956;2024-02-23T13:50:29;7.03;;;4.85;;
18695;SDS011;22617;43.690;27.956;2024-02-23T13:55:33;6.80;;;4.68;;
18695;SDS011;22617;43.690;27.956;2024-02-23T14:00:37;22.55;;;5.35;;
18695;SDS011;22617;43.690;27.956;2024-02-23T14:05:41;7.40;;;4.97;;
18695;SDS011;22617;43.690;27.956;2024-02-23T14:10:46;15.68;;;8.75;;
18695;SDS011;22617;43.690;27.956;2024-02-23T14:15:51;15.83;;;8.00;;
18695;SDS011;22617;43.690;27.956;2024-02-23T14:20:55;11.80;;;7.25;;
18695;SDS011;22617;43.690;27.956;2024-02-23T14:25:59;12.53;;;7.13;;
18695;SDS011;22617;43.690;27.956;2024-02-23T14:31:04;12.85;;;7.45;;
18695;SDS011;22617;43.690;27.956;2024-02-23T14:36:07;10.87;;;6.70;;
18695;SDS011;22617;43.690;27.956;2024-02-23T14:41:11;7.90;;;5.17;;
18695;SDS011;22617;43.690;27.956;2024-02-23T14:46:16;7.23;;;4.90;;
18695;SDS011;22617;43.690;27.956;2024-02-23T14:51:20;8.17;;;4.87;;
18695;SDS011;22617;43.690;27.956;2024-02-23T14:56:23;7.97;;;5.00;;
18695;SDS011;22617;43.690;27.956;2024-02-23T15:01:28;7.73;;;5.00;;
18695;SDS011;22617;43.690;27.956;2024-02-23T15:06:31;10.60;;;6.70;;
18695;SDS011;22617;43.690;27.956;2024-02-23T15:11:35;14.83;;;8.00;;
18695;SDS011;22617;43.690;27.956;2024-02-23T15:16:40;15.47;;;9.00;;
18695;SDS011;22617;43.690;27.956;2024-02-23T15:21:44;20.83;;;10.53;;
18695;SDS011;22617;43.690;27.956;2024-02-23T15:26:47;21.10;;;11.40;;
18695;SDS011;22617;43.690;27.956;2024-02-23T15:31:52;20.17;;;11.33;;
18695;SDS011;22617;43.690;27.956;2024-02-23T15:36:56;21.63;;;11.40;;
18695;SDS011;22617;43.690;27.956;2024-02-23T15:41:59;22.57;;;12.73;;
18695;SDS011;22617;43.690;27.956;2024-02-23T15:47:05;24.83;;;11.90;;
18695;SDS011;22617;43.690;27.956;2024-02-23T15:52:09;24.17;;;12.53;;
18695;SDS011;22617;43.690;27.956;2024-02-23T15:57:13;24.57;;;11.50;;
18695;SDS011;22617;43.690;27.956;2024-02-23T16:02:18;22.07;;;11.93;;
18695;SDS011;22617;43.690;27.956;2024-02-23T16:07:21;20.73;;;12.00;;
18695;SDS011;22617;43.690;27.956;2024-02-23T16:12:25;25.03;;;13.07;;
18695;SDS011;22617;43.690;27.956;2024-02-23T16:17:30;22.60;;;12.57;;
18695;SDS011;22617;43.690;27.956;2024-02-23T16:22:33;28.37;;;13.13;;
18695;SDS011;22617;43.690;27.956;2024-02-23T16:27:37;24.07;;;13.23;;
18695;SDS011;22617;43.690;27.956;2024-02-23T16:32:45;25.20;;;13.50;;
18695;SDS011;22617;43.690;27.956;2024-02-23T16:37:51;26.27;;;13.97;;
18695;SDS011;22617;43.690;27.956;2024-02-23T16:42:54;32.17;;;13.20;;
18695;SDS011;22617;43.690;27.956;2024-02-23T16:48:00;29.23;;;14.53;;
18695;SDS011;22617;43.690;27.956;2024-02-23T16:53:08;25.17;;;13.37;;
18695;SDS011;22617;43.690;27.956;2024-02-23T16:58:12;25.50;;;13.37;;
18695;SDS011;22617;43.690;27.956;2024-02-23T17:03:17;28.40;;;13.30;;
18695;SDS011;22617;43.690;27.956;2024-02-23T17:08:21;25.33;;;13.10;;
18695;SDS011;22617;43.690;27.956;2024-02-23T17:13:25;24.67;;;13.00;;
18695;SDS011;22617;43.690;27.956;2024-02-23T17:18:29;26.47;;;14.03;;
18695;SDS011;22617;43.690;27.956;2024-02-23T17:23:33;32.03;;;15.03;;
18695;SDS011;22617;43.690;27.956;2024-02-23T17:28:37;25.27;;;13.07;;
18695;SDS011;22617;43.690;27.956;2024-02-23T17:33:44;25.30;;;15.00;;
18695;SDS011;22617;43.690;27.956;2024-02-23T17:38:48;30.77;;;14.73;;
18695;SDS011;22617;43.690;27.956;2024-02-23T17:43:52;28.57;;;13.90;;
18695;SDS011;22617;43.690;27.956;2024-02-23T17:48:58;30.80;;;14.70;;
18695;SDS011;22617;43.690;27.956;2024-02-23T17:54:02;27.93;;;13.57;;
18695;SDS011;22617;43.690;27.956;2024-02-23T17:59:05;28.77;;;14.53;;
18695;SDS011;22617;43.690;27.956;2024-02-23T18:04:10;28.63;;;14.30;;
18695;SDS011;22617;43.690;27.956;2024-02-23T18:09:14;25.53;;;13.43;;
18695;SDS011;22617;43.690;27.956;2024-02-23T18:14:18;29.67;;;13.83;;
18695;SDS011;22617;43.690;27.956;2024-02-23T18:19:23;29.57;;;14.77;;
18695;SDS011;22617;43.690;27.956;2024-02-23T18:24:26;30.77;;;15.43;;
18695;SDS011;22617;43.690;27.956;2024-02-23T18:29:30;34.87;;;16.97;;
18695;SDS011;22617;43.690;27.956;2024-02-23T18:34:35;34.67;;;16.03;;
18695;SDS011;22617;43.690;27.956;2024-02-23T18:39:38;31.33;;;14.80;;
18695;SDS011;22617;43.690;27.956;2024-02-23T18:44:42;35.63;;;15.70;;
18695;SDS011;22617;43.690;27.956;2024-02-23T18:49:47;30.63;;;14.33;;
18695;SDS011;22617;43.690;27.956;2024-02-23T18:54:52;26.50;;;13.10;;
18695;SDS011;22617;43.690;27.956;2024-02-23T18:59:56;24.40;;;12.40;;
18695;SDS011;22617;43.690;27.956;2024-02-23T19:05:01;25.40;;;12.57;;
18695;SDS011;22617;43.690;27.956;2024-02-23T19:10:05;26.70;;;12.60;;
18695;SDS011;22617;43.690;27.956;2024-02-23T19:15:10;24.07;;;12.73;;
18695;SDS011;22617;43.690;27.956;2024-02-23T19:20:16;24.33;;;12.40;;
18695;SDS011;22617;43.690;27.956;2024-02-23T19:25:19;25.77;;;13.03;;
18695;SDS011;22617;43.690;27.956;2024-02-23T19:30:23;25.40;;;13.00;;
18695;SDS011;22617;43.690;27.956;2024-02-23T19:35:28;25.70;;;13.13;;
18695;SDS011;22617;43.690;27.956;2024-02-23T19:40:31;26.57;;;12.23;;
18695;SDS011;22617;43.690;27.956;2024-02-23T19:45:35;20.90;;;11.47;;
18695;SDS011;22617;43.690;27.956;2024-02-23T19:50:40;24.40;;;12.63;;
18695;SDS011;22617;43.690;27.956;2024-02-23T19:55:44;23.07;;;12.60;;
18695;SDS011;22617;43.690;27.956;2024-02-23T20:00:49;20.87;;;11.37;;
18695;SDS011;22617;43.690;27.956;2024-02-23T20:05:54;19.80;;;10.90;;
18695;SDS011;22617;43.690;27.956;2024-02-23T20:10:58;22.70;;;11.50;;
18695;SDS011;22617;43.690;27.956;2024-02-23T20:16:02;25.83;;;10.90;;
18695;SDS011;22617;43.690;27.956;2024-02-23T20:21:08;26.97;;;12.03;;
18695;SDS011;22617;43.690;27.956;2024-02-23T20:26:11;21.83;;;11.57;;
18695;SDS011;22617;43.690;27.956;2024-02-23T20:31:15;26.23;;;11.80;;
18695;SDS011;22617;43.690;27.956;2024-02-23T20:36:20;23.23;;;11.00;;
18695;SDS011;22617;43.690;27.956;2024-02-23T20:41:23;23.10;;;11.57;;
18695;SDS011;22617;43.690;27.956;2024-02-23T20:46:27;25.07;;;10.70;;
18695;SDS011;22617;43.690;27.956;2024-02-23T20:51:33;23.67;;;11.70;;
18695;SDS011;22617;43.690;27.956;2024-02-23T20:56:36;20.37;;;10.97;;
18695;SDS011;22617;43.690;27.956;2024-02-23T21:01:40;25.30;;;11.43;;
18695;SDS011;22617;43.690;27.956;2024-02-23T21:06:45;26.50;;;11.70;;
18695;SDS011;22617;43.690;27.956;2024-02-23T21:11:48;27.50;;;11.67;;
18695;SDS011;22617;43.690;27.956;2024-02-23T21:16:52;21.87;;;10.90;;
18695;SDS011;22617;43.690;27.956;2024-02-23T21:21:57;22.37;;;11.23;;
18695;SDS011;22617;43.690;27.956;2024-02-23T21:27:00;22.47;;;10.13;;
18695;SDS011;22617;43.690;27.956;2024-02-23T21:32:04;20.70;;;10.00;;
18695;SDS011;22617;43.690;27.956;2024-02-23T21:37:09;22.00;;;10.07;;
18695;SDS011;22617;43.690;27.956;2024-02-23T21:42:18;22.13;;;10.53;;
18695;SDS011;22617;43.690;27.956;2024-02-23T21:47:21;21.77;;;10.03;;
18695;SDS011;22617;43.690;27.956;2024-02-23T21:52:26;17.87;;;9.77;;
18695;SDS011;22617;43.690;27.956;2024-02-23T21:57:32;19.13;;;10.30;;
18695;SDS011;22617;43.690;27.956;2024-02-23T22:02:35;20.53;;;9.33;;
18695;SDS011;22617;43.690;27.956;2024-02-23T22:07:40;20.13;;;8.50;;
18695;SDS011;22617;43.690;27.956;2024-02-23T22:12:44;17.73;;;8.07;;
18695;SDS011;22617;43.690;27.956;2024-02-23T22:17:48;18.33;;;9.27;;
18695;SDS011;22617;43.690;27.956;2024-02-23T22:22:53;16.53;;;8.20;;
18695;SDS011;22617;43.690;27.956;2024-02-23T22:27:56;19.83;;;9.10;;
18695;SDS011;22617;43.690;27.956;2024-02-23T22:32:59;16.70;;;8.40;;
18695;SDS011;22617;43.690;27.956;2024-02-23T22:38:05;17.50;;;8.97;;
18695;SDS011;22617;43.690;27.956;2024-02-23T22:43:08;16.63;;;8.70;;
18695;SDS011;22617;43.690;27.956;2024-02-23T22:48:12;18.77;;;8.37;;
18695;SDS011;22617;43.690;27.956;2024-02-23T22:53:17;18.70;;;8.83;;
18695;SDS011;22617;43.690;27.956;2024-02-23T22:58:20;19.10;;;9.07;;
18695;SDS011;22617;43.690;27.956;2024-02-23T23:03:24;18.47;;;8.57;;
18695;SDS011;22617;43.690;27.956;2024-02-23T23:08:29;17.80;;;8.70;;
18695;SDS011;22617;43.690;27.956;2024-02-23T23:13:32;15.53;;;8.20;;
18695;SDS011;22617;43.690;27.956;2024-02-23T23:18:36;18.57;;;8.50;;
18695;SDS011;22617;43.690;27.956;2024-02-23T23:23:41;18.07;;;8.57;;
18695;SDS011;22617;43.690;27.956;2024-02-23T23:28:45;17.70;;;8.97;;
18695;SDS011;22617;43.690;27.956;2024-02-23T23:33:48;21.87;;;10.00;;
18695;SDS011;22617;43.690;27.956;2024-02-23T23:38:53;24.07;;;10.10;;
18695;SDS011;22617;43.690;27.956;2024-02-23T23:43:57;21.97;;;9.73;;
18695;SDS011;22617;43.690;27.956;2024-02-23T23:49:00;23.03;;;10.57;;
18695;SDS011;22617;43.690;27.956;2024-02-23T23:54:05;22.13;;;9.73;;
18695;SDS011;22617;43.690;27.956;2024-02-23T23:59:09;24.30;;;9.80;;
